sensor_id;sensor_type;location;lat;lon;timestamp;P1;durP1;ratioP1;P2;durP2;ratioP2
69220;SDS011;56331;51.992;20.910;2022-07-10T00:02:01;1.37;;;1.05;;
69220;SDS011;56331;51.992;20.910;2022-07-10T00:04:27;1.72;;;1.25;;
69220;SDS011;56331;51.992;20.910;2022-07-10T00:06:53;1.30;;;1.10;;
69220;SDS011;56331;51.992;20.910;2022-07-10T00:09:21;1.40;;;1.00;;
69220;SDS011;56331;51.992;20.910;2022-07-10T00:11:48;1.25;;;1.00;;
69220;SDS011;56331;51.992;20.910;2022-07-10T00:14:14;1.15;;;0.88;;
69220;SDS011;56331;51.992;20.910;2022-07-10T00:16:41;1.20;;;0.85;;
69220;SDS011;56331;51.992;20.910;2022-07-10T00:19:08;1.55;;;1.10;;
69220;SDS011;56331;51.992;20.910;2022-07-10T00:21:34;1.47;;;0.90;;
69220;SDS011;56331;51.992;20.910;2022-07-10T00:24:01;2.70;;;1.05;;
69220;SDS011;56331;51.992;20.910;2022-07-10T00:26:28;1.22;;;0.98;;
69220;SDS011;56331;51.992;20.910;2022-07-10T00:28:55;1.12;;;1.02;;
69220;SDS011;56331;51.992;20.910;2022-07-10T00:31:22;2.10;;;1.10;;
69220;SDS011;56331;51.992;20.910;2022-07-10T00:33:49;1.72;;;1.07;;
69220;SDS011;56331;51.992;20.910;2022-07-10T00:36:17;1.47;;;1.00;;
69220;SDS011;56331;51.992;20.910;2022-07-10T00:38:44;1.40;;;1.00;;
69220;SDS011;56331;51.992;20.910;2022-07-10T00:41:11;1.57;;;0.98;;
69220;SDS011;56331;51.992;20.910;2022-07-10T00:43:51;0.60;;;0.60;;
69220;SDS011;56331;51.992;20.910;2022-07-10T00:46:22;2.55;;;1.00;;
69220;SDS011;56331;51.992;20.910;2022-07-10T00:48:49;1.70;;;1.00;;
69220;SDS011;56331;51.992;20.910;2022-07-10T00:51:17;1.57;;;0.90;;
69220;SDS011;56331;51.992;20.910;2022-07-10T00:53:45;1.27;;;0.90;;
69220;SDS011;56331;51.992;20.910;2022-07-10T00:56:13;1.90;;;1.15;;
69220;SDS011;56331;51.992;20.910;2022-07-10T00:58:46;1.25;;;1.00;;
69220;SDS011;56331;51.992;20.910;2022-07-10T01:04:45;1.72;;;0.90;;
69220;SDS011;56331;51.992;20.910;2022-07-10T01:07:12;1.85;;;1.12;;
69220;SDS011;56331;51.992;20.910;2022-07-10T01:09:41;1.05;;;0.88;;
69220;SDS011;56331;51.992;20.910;2022-07-10T01:12:07;1.00;;;0.90;;
69220;SDS011;56331;51.992;20.910;2022-07-10T01:14:36;1.35;;;0.95;;
69220;SDS011;56331;51.992;20.910;2022-07-10T01:17:06;1.15;;;0.90;;
69220;SDS011;56331;51.992;20.910;2022-07-10T01:19:34;1.77;;;1.07;;
69220;SDS011;56331;51.992;20.910;2022-07-10T01:22:01;1.12;;;0.90;;
69220;SDS011;56331;51.992;20.910;2022-07-10T01:24:27;1.30;;;0.98;;
69220;SDS011;56331;51.992;20.910;2022-07-10T01:26:54;1.02;;;0.90;;
69220;SDS011;56331;51.992;20.910;2022-07-10T01:29:20;1.98;;;0.90;;
69220;SDS011;56331;51.992;20.910;2022-07-10T01:31:48;1.15;;;0.88;;
69220;SDS011;56331;51.992;20.910;2022-07-10T01:34:14;1.10;;;0.70;;
69220;SDS011;56331;51.992;20.910;2022-07-10T01:36:40;1.25;;;0.80;;
69220;SDS011;56331;51.992;20.910;2022-07-10T01:39:07;1.17;;;0.78;;
69220;SDS011;56331;51.992;20.910;2022-07-10T01:41:34;0.80;;;0.78;;
69220;SDS011;56331;51.992;20.910;2022-07-10T01:44:00;1.60;;;1.05;;
69220;SDS011;56331;51.992;20.910;2022-07-10T01:46:27;2.05;;;1.10;;
69220;SDS011;56331;51.992;20.910;2022-07-10T01:48:53;0.95;;;0.82;;
69220;SDS011;56331;51.992;20.910;2022-07-10T01:51:20;0.93;;;0.78;;
69220;SDS011;56331;51.992;20.910;2022-07-10T01:53:46;1.60;;;0.90;;
69220;SDS011;56331;51.992;20.910;2022-07-10T01:56:15;2.08;;;1.00;;
69220;SDS011;56331;51.992;20.910;2022-07-10T01:58:42;0.95;;;0.82;;
69220;SDS011;56331;51.992;20.910;2022-07-10T02:01:10;1.25;;;1.05;;
69220;SDS011;56331;51.992;20.910;2022-07-10T02:03:37;1.47;;;0.80;;
69220;SDS011;56331;51.992;20.910;2022-07-10T02:06:23;1.95;;;0.70;;
69220;SDS011;56331;51.992;20.910;2022-07-10T02:08:49;1.52;;;0.90;;
69220;SDS011;56331;51.992;20.910;2022-07-10T02:11:16;1.57;;;1.00;;
69220;SDS011;56331;51.992;20.910;2022-07-10T02:13:42;1.15;;;0.93;;
69220;SDS011;56331;51.992;20.910;2022-07-10T02:16:09;1.35;;;0.98;;
69220;SDS011;56331;51.992;20.910;2022-07-10T02:18:36;1.80;;;1.10;;
69220;SDS011;56331;51.992;20.910;2022-07-10T02:21:04;1.30;;;1.15;;
69220;SDS011;56331;51.992;20.910;2022-07-10T02:23:32;1.20;;;0.90;;
69220;SDS011;56331;51.992;20.910;2022-07-10T02:25:59;1.10;;;0.80;;
69220;SDS011;56331;51.992;20.910;2022-07-10T02:28:26;1.72;;;1.10;;
69220;SDS011;56331;51.992;20.910;2022-07-10T02:30:52;1.47;;;1.10;;
69220;SDS011;56331;51.992;20.910;2022-07-10T02:33:19;1.42;;;0.90;;
69220;SDS011;56331;51.992;20.910;2022-07-10T02:35:45;2.17;;;1.17;;
69220;SDS011;56331;51.992;20.910;2022-07-10T02:38:12;1.57;;;1.10;;
69220;SDS011;56331;51.992;20.910;2022-07-10T02:40:38;1.27;;;0.93;;
69220;SDS011;56331;51.992;20.910;2022-07-10T02:43:05;1.30;;;0.90;;
69220;SDS011;56331;51.992;20.910;2022-07-10T02:45:31;1.07;;;0.90;;
69220;SDS011;56331;51.992;20.910;2022-07-10T02:47:57;1.35;;;1.00;;
69220;SDS011;56331;51.992;20.910;2022-07-10T02:50:24;1.42;;;0.90;;
69220;SDS011;56331;51.992;20.910;2022-07-10T02:52:50;1.45;;;0.88;;
69220;SDS011;56331;51.992;20.910;2022-07-10T02:55:17;1.35;;;0.90;;
69220;SDS011;56331;51.992;20.910;2022-07-10T02:57:43;1.87;;;0.90;;
69220;SDS011;56331;51.992;20.910;2022-07-10T03:00:10;1.87;;;1.00;;
69220;SDS011;56331;51.992;20.910;2022-07-10T03:02:37;1.40;;;1.00;;
69220;SDS011;56331;51.992;20.910;2022-07-10T03:05:04;1.95;;;1.02;;
69220;SDS011;56331;51.992;20.910;2022-07-10T03:07:31;1.75;;;1.15;;
69220;SDS011;56331;51.992;20.910;2022-07-10T03:09:58;1.37;;;0.90;;
69220;SDS011;56331;51.992;20.910;2022-07-10T03:12:24;1.10;;;1.00;;
69220;SDS011;56331;51.992;20.910;2022-07-10T03:14:51;1.47;;;0.90;;
69220;SDS011;56331;51.992;20.910;2022-07-10T03:17:17;3.35;;;0.93;;
69220;SDS011;56331;51.992;20.910;2022-07-10T03:19:43;0.98;;;0.80;;
69220;SDS011;56331;51.992;20.910;2022-07-10T03:22:10;1.42;;;0.93;;
69220;SDS011;56331;51.992;20.910;2022-07-10T03:24:36;1.45;;;1.00;;
69220;SDS011;56331;51.992;20.910;2022-07-10T03:27:03;1.00;;;0.90;;
69220;SDS011;56331;51.992;20.910;2022-07-10T03:29:30;1.05;;;0.90;;
69220;SDS011;56331;51.992;20.910;2022-07-10T03:31:58;1.42;;;1.02;;
69220;SDS011;56331;51.992;20.910;2022-07-10T03:34:24;1.12;;;0.82;;
69220;SDS011;56331;51.992;20.910;2022-07-10T03:36:51;1.42;;;1.00;;
69220;SDS011;56331;51.992;20.910;2022-07-10T03:39:17;1.20;;;0.90;;
69220;SDS011;56331;51.992;20.910;2022-07-10T03:41:44;1.10;;;0.82;;
69220;SDS011;56331;51.992;20.910;2022-07-10T03:44:11;1.42;;;0.90;;
69220;SDS011;56331;51.992;20.910;2022-07-10T03:46:37;1.65;;;0.95;;
69220;SDS011;56331;51.992;20.910;2022-07-10T03:49:03;4.03;;;0.80;;
69220;SDS011;56331;51.992;20.910;2022-07-10T03:51:30;1.52;;;0.88;;
69220;SDS011;56331;51.992;20.910;2022-07-10T03:53:56;1.00;;;0.88;;
69220;SDS011;56331;51.992;20.910;2022-07-10T03:56:23;2.58;;;1.02;;
69220;SDS011;56331;51.992;20.910;2022-07-10T03:59:08;1.17;;;0.98;;
69220;SDS011;56331;51.992;20.910;2022-07-10T04:01:34;1.25;;;0.98;;
69220;SDS011;56331;51.992;20.910;2022-07-10T04:04:01;1.40;;;1.10;;
69220;SDS011;56331;51.992;20.910;2022-07-10T04:06:28;1.35;;;1.00;;
69220;SDS011;56331;51.992;20.910;2022-07-10T04:08:54;0.98;;;0.88;;
69220;SDS011;56331;51.992;20.910;2022-07-10T04:11:21;1.25;;;1.05;;
69220;SDS011;56331;51.992;20.910;2022-07-10T04:13:47;0.90;;;0.80;;
69220;SDS011;56331;51.992;20.910;2022-07-10T04:16:13;1.40;;;0.85;;
69220;SDS011;56331;51.992;20.910;2022-07-10T04:18:40;0.90;;;0.80;;
69220;SDS011;56331;51.992;20.910;2022-07-10T04:21:06;1.20;;;0.90;;
69220;SDS011;56331;51.992;20.910;2022-07-10T04:23:33;1.60;;;0.98;;
69220;SDS011;56331;51.992;20.910;2022-07-10T04:26:00;1.90;;;1.07;;
69220;SDS011;56331;51.992;20.910;2022-07-10T04:28:27;1.42;;;1.00;;
69220;SDS011;56331;51.992;20.910;2022-07-10T04:30:53;1.92;;;0.88;;
69220;SDS011;56331;51.992;20.910;2022-07-10T04:33:19;1.47;;;0.70;;
69220;SDS011;56331;51.992;20.910;2022-07-10T04:35:46;1.20;;;0.90;;
69220;SDS011;56331;51.992;20.910;2022-07-10T04:38:12;1.20;;;1.10;;
69220;SDS011;56331;51.992;20.910;2022-07-10T04:40:39;1.40;;;1.10;;
69220;SDS011;56331;51.992;20.910;2022-07-10T04:43:05;1.00;;;0.90;;
69220;SDS011;56331;51.992;20.910;2022-07-10T04:45:31;1.32;;;0.98;;
69220;SDS011;56331;51.992;20.910;2022-07-10T04:47:58;2.58;;;0.80;;
69220;SDS011;56331;51.992;20.910;2022-07-10T04:50:24;1.57;;;1.10;;
69220;SDS011;56331;51.992;20.910;2022-07-10T04:52:51;1.50;;;0.93;;
69220;SDS011;56331;51.992;20.910;2022-07-10T04:55:17;1.10;;;1.00;;
69220;SDS011;56331;51.992;20.910;2022-07-10T04:57:43;2.47;;;1.07;;
69220;SDS011;56331;51.992;20.910;2022-07-10T05:00:10;1.27;;;0.88;;
69220;SDS011;56331;51.992;20.910;2022-07-10T05:02:38;1.85;;;0.93;;
69220;SDS011;56331;51.992;20.910;2022-07-10T05:05:05;1.20;;;0.90;;
69220;SDS011;56331;51.992;20.910;2022-07-10T05:07:32;0.80;;;0.80;;
69220;SDS011;56331;51.992;20.910;2022-07-10T05:09:58;0.85;;;0.60;;
69220;SDS011;56331;51.992;20.910;2022-07-10T05:12:25;1.87;;;1.10;;
69220;SDS011;56331;51.992;20.910;2022-07-10T05:14:52;0.85;;;0.80;;
69220;SDS011;56331;51.992;20.910;2022-07-10T05:17:18;1.22;;;0.90;;
69220;SDS011;56331;51.992;20.910;2022-07-10T05:19:45;1.75;;;1.00;;
69220;SDS011;56331;51.992;20.910;2022-07-10T05:22:11;1.35;;;0.95;;
69220;SDS011;56331;51.992;20.910;2022-07-10T05:24:37;1.32;;;0.98;;
69220;SDS011;56331;51.992;20.910;2022-07-10T05:27:04;0.88;;;0.75;;
69220;SDS011;56331;51.992;20.910;2022-07-10T05:29:31;2.02;;;0.90;;
69220;SDS011;56331;51.992;20.910;2022-07-10T05:31:57;1.17;;;0.88;;
69220;SDS011;56331;51.992;20.910;2022-07-10T05:34:24;1.00;;;0.80;;
69220;SDS011;56331;51.992;20.910;2022-07-10T05:36:50;2.33;;;0.90;;
69220;SDS011;56331;51.992;20.910;2022-07-10T05:39:17;1.10;;;0.90;;
69220;SDS011;56331;51.992;20.910;2022-07-10T05:41:43;0.95;;;0.85;;
69220;SDS011;56331;51.992;20.910;2022-07-10T05:44:10;1.07;;;0.90;;
69220;SDS011;56331;51.992;20.910;2022-07-10T05:46:36;1.22;;;0.93;;
69220;SDS011;56331;51.992;20.910;2022-07-10T05:49:03;1.35;;;0.88;;
69220;SDS011;56331;51.992;20.910;2022-07-10T05:51:30;1.15;;;0.75;;
69220;SDS011;56331;51.992;20.910;2022-07-10T05:53:56;1.87;;;0.90;;
69220;SDS011;56331;51.992;20.910;2022-07-10T05:56:23;1.07;;;0.80;;
69220;SDS011;56331;51.992;20.910;2022-07-10T05:58:50;1.45;;;0.70;;
69220;SDS011;56331;51.992;20.910;2022-07-10T06:01:16;1.15;;;0.70;;
69220;SDS011;56331;51.992;20.910;2022-07-10T06:03:42;1.20;;;0.82;;
69220;SDS011;56331;51.992;20.910;2022-07-10T06:06:10;1.45;;;0.98;;
69220;SDS011;56331;51.992;20.910;2022-07-10T06:08:38;1.43;;;0.90;;
69220;SDS011;56331;51.992;20.910;2022-07-10T06:11:05;1.20;;;0.80;;
69220;SDS011;56331;51.992;20.910;2022-07-10T06:13:31;1.60;;;0.68;;
69220;SDS011;56331;51.992;20.910;2022-07-10T06:15:57;1.47;;;1.10;;
69220;SDS011;56331;51.992;20.910;2022-07-10T06:18:24;0.93;;;0.82;;
69220;SDS011;56331;51.992;20.910;2022-07-10T06:20:51;1.65;;;1.00;;
69220;SDS011;56331;51.992;20.910;2022-07-10T06:23:17;1.17;;;0.90;;
69220;SDS011;56331;51.992;20.910;2022-07-10T06:25:43;0.93;;;0.80;;
69220;SDS011;56331;51.992;20.910;2022-07-10T06:28:10;2.60;;;1.15;;
69220;SDS011;56331;51.992;20.910;2022-07-10T06:30:37;1.35;;;1.00;;
69220;SDS011;56331;51.992;20.910;2022-07-10T06:33:03;1.87;;;1.10;;
69220;SDS011;56331;51.992;20.910;2022-07-10T06:35:30;1.40;;;1.00;;
69220;SDS011;56331;51.992;20.910;2022-07-10T06:37:56;1.52;;;0.93;;
69220;SDS011;56331;51.992;20.910;2022-07-10T06:40:23;1.12;;;0.90;;
69220;SDS011;56331;51.992;20.910;2022-07-10T06:42:50;1.60;;;0.75;;
69220;SDS011;56331;51.992;20.910;2022-07-10T06:45:17;1.42;;;0.78;;
69220;SDS011;56331;51.992;20.910;2022-07-10T06:47:44;1.62;;;1.00;;
69220;SDS011;56331;51.992;20.910;2022-07-10T06:50:16;1.20;;;0.72;;
69220;SDS011;56331;51.992;20.910;2022-07-10T06:52:43;1.52;;;0.80;;
69220;SDS011;56331;51.992;20.910;2022-07-10T06:55:09;1.87;;;0.88;;
69220;SDS011;56331;51.992;20.910;2022-07-10T06:57:37;2.15;;;1.20;;
69220;SDS011;56331;51.992;20.910;2022-07-10T07:00:05;1.95;;;1.00;;
69220;SDS011;56331;51.992;20.910;2022-07-10T07:02:33;1.35;;;0.90;;
69220;SDS011;56331;51.992;20.910;2022-07-10T07:04:59;0.88;;;0.80;;
69220;SDS011;56331;51.992;20.910;2022-07-10T07:07:26;0.93;;;0.78;;
69220;SDS011;56331;51.992;20.910;2022-07-10T07:12:16;1.50;;;0.93;;
69220;SDS011;56331;51.992;20.910;2022-07-10T07:14:47;1.92;;;1.00;;
69220;SDS011;56331;51.992;20.910;2022-07-10T07:17:15;2.45;;;1.07;;
69220;SDS011;56331;51.992;20.910;2022-07-10T07:19:44;1.42;;;0.80;;
69220;SDS011;56331;51.992;20.910;2022-07-10T07:22:29;2.08;;;1.00;;
69220;SDS011;56331;51.992;20.910;2022-07-10T07:25:15;2.33;;;1.17;;
69220;SDS011;56331;51.992;20.910;2022-07-10T07:27:41;2.08;;;1.00;;
69220;SDS011;56331;51.992;20.910;2022-07-10T07:30:09;1.85;;;0.90;;
69220;SDS011;56331;51.992;20.910;2022-07-10T07:32:38;2.45;;;1.02;;
69220;SDS011;56331;51.992;20.910;2022-07-10T07:35:07;2.45;;;1.05;;
69220;SDS011;56331;51.992;20.910;2022-07-10T07:42:37;1.75;;;1.12;;
69220;SDS011;56331;51.992;20.910;2022-07-10T07:45:05;3.22;;;1.10;;
69220;SDS011;56331;51.992;20.910;2022-07-10T07:47:42;3.30;;;1.30;;
69220;SDS011;56331;51.992;20.910;2022-07-10T07:50:14;2.92;;;0.98;;
69220;SDS011;56331;51.992;20.910;2022-07-10T07:52:42;0.97;;;0.73;;
69220;SDS011;56331;51.992;20.910;2022-07-10T07:55:10;2.02;;;1.15;;
69220;SDS011;56331;51.992;20.910;2022-07-10T07:57:40;2.90;;;1.07;;
69220;SDS011;56331;51.992;20.910;2022-07-10T08:00:10;1.87;;;0.90;;
69220;SDS011;56331;51.992;20.910;2022-07-10T08:02:40;1.75;;;1.00;;
69220;SDS011;56331;51.992;20.910;2022-07-10T08:05:08;1.12;;;0.80;;
69220;SDS011;56331;51.992;20.910;2022-07-10T08:07:41;3.45;;;1.00;;
69220;SDS011;56331;51.992;20.910;2022-07-10T08:10:16;1.35;;;0.75;;
69220;SDS011;56331;51.992;20.910;2022-07-10T08:12:48;1.75;;;0.80;;
69220;SDS011;56331;51.992;20.910;2022-07-10T08:15:19;1.82;;;0.80;;
69220;SDS011;56331;51.992;20.910;2022-07-10T08:17:51;1.82;;;0.90;;
69220;SDS011;56331;51.992;20.910;2022-07-10T08:20:20;2.45;;;0.90;;
69220;SDS011;56331;51.992;20.910;2022-07-10T08:22:49;3.00;;;1.00;;
69220;SDS011;56331;51.992;20.910;2022-07-10T08:25:18;5.80;;;0.82;;
69220;SDS011;56331;51.992;20.910;2022-07-10T08:27:48;2.80;;;1.20;;
69220;SDS011;56331;51.992;20.910;2022-07-10T08:30:15;2.55;;;1.02;;
69220;SDS011;56331;51.992;20.910;2022-07-10T08:32:43;3.22;;;0.98;;
69220;SDS011;56331;51.992;20.910;2022-07-10T08:35:11;1.37;;;0.75;;
69220;SDS011;56331;51.992;20.910;2022-07-10T08:37:44;2.47;;;0.88;;
69220;SDS011;56331;51.992;20.910;2022-07-10T08:40:13;1.10;;;0.83;;
69220;SDS011;56331;51.992;20.910;2022-07-10T08:42:43;1.00;;;0.82;;
69220;SDS011;56331;51.992;20.910;2022-07-10T08:45:13;2.55;;;1.30;;
69220;SDS011;56331;51.992;20.910;2022-07-10T08:47:47;2.15;;;0.88;;
69220;SDS011;56331;51.992;20.910;2022-07-10T08:50:29;2.80;;;1.00;;
69220;SDS011;56331;51.992;20.910;2022-07-10T08:53:08;2.40;;;0.78;;
69220;SDS011;56331;51.992;20.910;2022-07-10T08:55:39;1.45;;;0.85;;
69220;SDS011;56331;51.992;20.910;2022-07-10T08:58:07;2.05;;;0.78;;
69220;SDS011;56331;51.992;20.910;2022-07-10T09:00:35;2.25;;;0.93;;
69220;SDS011;56331;51.992;20.910;2022-07-10T09:03:02;3.47;;;0.80;;
69220;SDS011;56331;51.992;20.910;2022-07-10T09:05:30;1.07;;;0.90;;
69220;SDS011;56331;51.992;20.910;2022-07-10T09:07:57;1.98;;;0.90;;
69220;SDS011;56331;51.992;20.910;2022-07-10T09:10:24;1.00;;;0.62;;
69220;SDS011;56331;51.992;20.910;2022-07-10T09:12:58;1.75;;;1.00;;
69220;SDS011;56331;51.992;20.910;2022-07-10T09:15:32;1.60;;;0.70;;
69220;SDS011;56331;51.992;20.910;2022-07-10T09:18:00;1.55;;;0.80;;
69220;SDS011;56331;51.992;20.910;2022-07-10T09:20:39;0.80;;;0.70;;
69220;SDS011;56331;51.992;20.910;2022-07-10T09:23:15;1.37;;;0.80;;
69220;SDS011;56331;51.992;20.910;2022-07-10T09:25:45;1.42;;;0.88;;
69220;SDS011;56331;51.992;20.910;2022-07-10T09:28:17;1.12;;;0.60;;
69220;SDS011;56331;51.992;20.910;2022-07-10T09:30:47;1.42;;;0.80;;
69220;SDS011;56331;51.992;20.910;2022-07-10T09:43:43;1.35;;;0.88;;
69220;SDS011;56331;51.992;20.910;2022-07-10T09:48:58;0.90;;;0.70;;
69220;SDS011;56331;51.992;20.910;2022-07-10T09:51:43;1.27;;;0.80;;
69220;SDS011;56331;51.992;20.910;2022-07-10T09:54:13;1.32;;;0.62;;
69220;SDS011;56331;51.992;20.910;2022-07-10T09:56:41;1.27;;;0.68;;
69220;SDS011;56331;51.992;20.910;2022-07-10T09:59:17;1.17;;;0.70;;
69220;SDS011;56331;51.992;20.910;2022-07-10T10:01:49;1.20;;;0.57;;
69220;SDS011;56331;51.992;20.910;2022-07-10T10:04:18;1.65;;;0.60;;
69220;SDS011;56331;51.992;20.910;2022-07-10T10:11:55;1.30;;;0.70;;
69220;SDS011;56331;51.992;20.910;2022-07-10T10:14:24;0.95;;;0.65;;
69220;SDS011;56331;51.992;20.910;2022-07-10T10:16:54;0.65;;;0.50;;
69220;SDS011;56331;51.992;20.910;2022-07-10T10:22:11;1.47;;;0.70;;
69220;SDS011;56331;51.992;20.910;2022-07-10T10:24:39;0.72;;;0.60;;
69220;SDS011;56331;51.992;20.910;2022-07-10T10:27:07;1.00;;;0.53;;
69220;SDS011;56331;51.992;20.910;2022-07-10T10:29:35;1.98;;;0.60;;
69220;SDS011;56331;51.992;20.910;2022-07-10T10:32:04;0.70;;;0.50;;
69220;SDS011;56331;51.992;20.910;2022-07-10T10:40:05;0.85;;;0.55;;
69220;SDS011;56331;51.992;20.910;2022-07-10T10:42:35;0.62;;;0.50;;
69220;SDS011;56331;51.992;20.910;2022-07-10T10:50:38;1.42;;;0.50;;
69220;SDS011;56331;51.992;20.910;2022-07-10T10:53:20;1.62;;;0.50;;
69220;SDS011;56331;51.992;20.910;2022-07-10T10:58:41;1.12;;;0.65;;
69220;SDS011;56331;51.992;20.910;2022-07-10T11:06:46;0.68;;;0.42;;
69220;SDS011;56331;51.992;20.910;2022-07-10T11:12:12;0.80;;;0.40;;
69220;SDS011;56331;51.992;20.910;2022-07-10T11:14:40;1.07;;;0.60;;
69220;SDS011;56331;51.992;20.910;2022-07-10T11:17:13;0.95;;;0.57;;
69220;SDS011;56331;51.992;20.910;2022-07-10T11:19:40;0.65;;;0.40;;
69220;SDS011;56331;51.992;20.910;2022-07-10T11:28:04;0.90;;;0.60;;
69220;SDS011;56331;51.992;20.910;2022-07-10T11:30:51;0.98;;;0.47;;
69220;SDS011;56331;51.992;20.910;2022-07-10T11:35:49;1.15;;;0.60;;
69220;SDS011;56331;51.992;20.910;2022-07-10T11:38:24;0.75;;;0.53;;
69220;SDS011;56331;51.992;20.910;2022-07-10T11:40:51;0.65;;;0.40;;
69220;SDS011;56331;51.992;20.910;2022-07-10T11:43:20;1.42;;;0.57;;
69220;SDS011;56331;51.992;20.910;2022-07-10T11:45:51;1.15;;;0.60;;
69220;SDS011;56331;51.992;20.910;2022-07-10T11:48:24;1.47;;;0.55;;
69220;SDS011;56331;51.992;20.910;2022-07-10T11:50:51;0.95;;;0.53;;
69220;SDS011;56331;51.992;20.910;2022-07-10T11:53:23;0.93;;;0.40;;
69220;SDS011;56331;51.992;20.910;2022-07-10T11:56:01;0.80;;;0.50;;
69220;SDS011;56331;51.992;20.910;2022-07-10T11:58:28;0.68;;;0.40;;
69220;SDS011;56331;51.992;20.910;2022-07-10T12:01:02;0.60;;;0.30;;
69220;SDS011;56331;51.992;20.910;2022-07-10T12:03:31;0.50;;;0.30;;
69220;SDS011;56331;51.992;20.910;2022-07-10T12:11:12;1.47;;;0.50;;
69220;SDS011;56331;51.992;20.910;2022-07-10T12:13:41;0.95;;;0.45;;
69220;SDS011;56331;51.992;20.910;2022-07-10T12:16:09;0.53;;;0.40;;
69220;SDS011;56331;51.992;20.910;2022-07-10T12:18:35;0.70;;;0.37;;
69220;SDS011;56331;51.992;20.910;2022-07-10T12:21:02;0.55;;;0.33;;
69220;SDS011;56331;51.992;20.910;2022-07-10T12:23:33;0.70;;;0.40;;
69220;SDS011;56331;51.992;20.910;2022-07-10T12:26:15;0.95;;;0.60;;
69220;SDS011;56331;51.992;20.910;2022-07-10T12:28:50;0.62;;;0.40;;
69220;SDS011;56331;51.992;20.910;2022-07-10T12:31:25;0.75;;;0.37;;
69220;SDS011;56331;51.992;20.910;2022-07-10T12:33:56;0.80;;;0.47;;
69220;SDS011;56331;51.992;20.910;2022-07-10T12:36:43;0.55;;;0.30;;
69220;SDS011;56331;51.992;20.910;2022-07-10T12:39:14;1.42;;;0.65;;
69220;SDS011;56331;51.992;20.910;2022-07-10T12:41:55;0.60;;;0.45;;
69220;SDS011;56331;51.992;20.910;2022-07-10T12:44:34;0.80;;;0.55;;
69220;SDS011;56331;51.992;20.910;2022-07-10T12:52:28;0.82;;;0.40;;
69220;SDS011;56331;51.992;20.910;2022-07-10T12:55:14;0.75;;;0.40;;
69220;SDS011;56331;51.992;20.910;2022-07-10T12:57:57;0.80;;;0.50;;
69220;SDS011;56331;51.992;20.910;2022-07-10T13:00:28;1.47;;;0.50;;
69220;SDS011;56331;51.992;20.910;2022-07-10T13:03:01;0.95;;;0.40;;
69220;SDS011;56331;51.992;20.910;2022-07-10T13:08:07;0.78;;;0.40;;
69220;SDS011;56331;51.992;20.910;2022-07-10T13:10:41;0.57;;;0.30;;
69220;SDS011;56331;51.992;20.910;2022-07-10T13:13:12;0.90;;;0.42;;
69220;SDS011;56331;51.992;20.910;2022-07-10T13:15:39;1.30;;;0.37;;
69220;SDS011;56331;51.992;20.910;2022-07-10T13:18:11;0.97;;;0.30;;
69220;SDS011;56331;51.992;20.910;2022-07-10T13:20:38;0.70;;;0.30;;
69220;SDS011;56331;51.992;20.910;2022-07-10T13:23:04;0.30;;;0.20;;
69220;SDS011;56331;51.992;20.910;2022-07-10T13:25:31;0.42;;;0.30;;
69220;SDS011;56331;51.992;20.910;2022-07-10T13:27:57;1.07;;;0.40;;
69220;SDS011;56331;51.992;20.910;2022-07-10T13:30:25;0.65;;;0.33;;
69220;SDS011;56331;51.992;20.910;2022-07-10T13:32:52;0.50;;;0.30;;
69220;SDS011;56331;51.992;20.910;2022-07-10T13:35:18;0.65;;;0.40;;
69220;SDS011;56331;51.992;20.910;2022-07-10T13:37:45;0.90;;;0.35;;
69220;SDS011;56331;51.992;20.910;2022-07-10T13:40:12;1.40;;;0.62;;
69220;SDS011;56331;51.992;20.910;2022-07-10T13:42:39;0.80;;;0.50;;
69220;SDS011;56331;51.992;20.910;2022-07-10T13:45:06;0.65;;;0.30;;
69220;SDS011;56331;51.992;20.910;2022-07-10T13:47:34;0.80;;;0.40;;
69220;SDS011;56331;51.992;20.910;2022-07-10T13:50:00;0.50;;;0.23;;
69220;SDS011;56331;51.992;20.910;2022-07-10T13:52:27;0.60;;;0.30;;
69220;SDS011;56331;51.992;20.910;2022-07-10T13:55:01;0.90;;;0.60;;
69220;SDS011;56331;51.992;20.910;2022-07-10T13:57:33;0.68;;;0.40;;
69220;SDS011;56331;51.992;20.910;2022-07-10T14:00:02;0.60;;;0.30;;
69220;SDS011;56331;51.992;20.910;2022-07-10T14:02:32;0.82;;;0.37;;
69220;SDS011;56331;51.992;20.910;2022-07-10T14:05:00;0.72;;;0.30;;
69220;SDS011;56331;51.992;20.910;2022-07-10T14:07:30;0.80;;;0.35;;
69220;SDS011;56331;51.992;20.910;2022-07-10T14:10:02;1.20;;;0.40;;
69220;SDS011;56331;51.992;20.910;2022-07-10T14:12:35;0.50;;;0.30;;
69220;SDS011;56331;51.992;20.910;2022-07-10T14:15:03;1.02;;;0.30;;
69220;SDS011;56331;51.992;20.910;2022-07-10T14:17:36;1.12;;;0.40;;
69220;SDS011;56331;51.992;20.910;2022-07-10T14:20:06;1.87;;;0.40;;
69220;SDS011;56331;51.992;20.910;2022-07-10T14:22:37;0.45;;;0.23;;
69220;SDS011;56331;51.992;20.910;2022-07-10T14:25:07;0.40;;;0.30;;
69220;SDS011;56331;51.992;20.910;2022-07-10T14:27:37;0.35;;;0.30;;
69220;SDS011;56331;51.992;20.910;2022-07-10T14:30:09;0.62;;;0.30;;
69220;SDS011;56331;51.992;20.910;2022-07-10T14:32:44;0.70;;;0.30;;
69220;SDS011;56331;51.992;20.910;2022-07-10T14:35:18;1.00;;;0.65;;
69220;SDS011;56331;51.992;20.910;2022-07-10T14:37:49;0.90;;;0.37;;
69220;SDS011;56331;51.992;20.910;2022-07-10T14:40:19;1.32;;;0.60;;
69220;SDS011;56331;51.992;20.910;2022-07-10T14:42:52;1.37;;;0.60;;
69220;SDS011;56331;51.992;20.910;2022-07-10T14:45:33;0.50;;;0.30;;
69220;SDS011;56331;51.992;20.910;2022-07-10T14:48:03;0.80;;;0.40;;
69220;SDS011;56331;51.992;20.910;2022-07-10T14:50:36;1.37;;;0.40;;
69220;SDS011;56331;51.992;20.910;2022-07-10T14:53:08;2.33;;;0.60;;
69220;SDS011;56331;51.992;20.910;2022-07-10T14:55:39;0.55;;;0.37;;
69220;SDS011;56331;51.992;20.910;2022-07-10T14:58:08;1.65;;;0.30;;
69220;SDS011;56331;51.992;20.910;2022-07-10T15:00:38;0.45;;;0.25;;
69220;SDS011;56331;51.992;20.910;2022-07-10T15:03:06;0.90;;;0.33;;
69220;SDS011;56331;51.992;20.910;2022-07-10T15:05:39;2.50;;;0.30;;
69220;SDS011;56331;51.992;20.910;2022-07-10T15:08:09;0.50;;;0.20;;
69220;SDS011;56331;51.992;20.910;2022-07-10T15:10:43;0.70;;;0.40;;
69220;SDS011;56331;51.992;20.910;2022-07-10T15:13:14;0.78;;;0.30;;
69220;SDS011;56331;51.992;20.910;2022-07-10T15:15:45;0.85;;;0.30;;
69220;SDS011;56331;51.992;20.910;2022-07-10T15:18:17;0.70;;;0.28;;
69220;SDS011;56331;51.992;20.910;2022-07-10T15:20:51;0.35;;;0.30;;
69220;SDS011;56331;51.992;20.910;2022-07-10T15:25:51;0.40;;;0.20;;
69220;SDS011;56331;51.992;20.910;2022-07-10T15:30:53;1.17;;;0.33;;
69220;SDS011;56331;51.992;20.910;2022-07-10T15:33:21;0.55;;;0.30;;
69220;SDS011;56331;51.992;20.910;2022-07-10T15:36:00;1.02;;;0.30;;
69220;SDS011;56331;51.992;20.910;2022-07-10T15:38:30;0.65;;;0.23;;
69220;SDS011;56331;51.992;20.910;2022-07-10T15:40:59;0.40;;;0.30;;
69220;SDS011;56331;51.992;20.910;2022-07-10T15:43:38;0.60;;;0.30;;
69220;SDS011;56331;51.992;20.910;2022-07-10T15:46:08;0.50;;;0.28;;
69220;SDS011;56331;51.992;20.910;2022-07-10T15:48:35;0.47;;;0.40;;
69220;SDS011;56331;51.992;20.910;2022-07-10T15:51:03;1.43;;;0.27;;
69220;SDS011;56331;51.992;20.910;2022-07-10T15:53:32;0.50;;;0.30;;
69220;SDS011;56331;51.992;20.910;2022-07-10T15:55:59;0.75;;;0.30;;
69220;SDS011;56331;51.992;20.910;2022-07-10T15:58:28;0.30;;;0.20;;
69220;SDS011;56331;51.992;20.910;2022-07-10T16:00:56;0.80;;;0.30;;
69220;SDS011;56331;51.992;20.910;2022-07-10T16:03:23;0.40;;;0.20;;
69220;SDS011;56331;51.992;20.910;2022-07-10T16:05:51;3.75;;;0.30;;